Time;durP1;ratioP1;P1;durP2;ratioP2;P2;SDS_P1;SDS_P2;PMS_P1;PMS_P2;Temp;Humidity;BMP_temperature;BMP_pressure;BME280_temperature;BME280_humidity;BME280_pressure;Samples;Min_cycle;Max_cycle;Signal;HPM_P1;HPM_P2
2022/02/06 00:01:43;;;;;;;8.90;2.22;;;5.70;99.90;;;;;;5042579;28;20060;-70
2022/02/06 00:04:09;;;;;;;5.72;1.80;;;5.80;99.90;;;;;;5041091;28;20366;-71
2022/02/06 00:06:35;;;;;;;5.65;1.55;;;5.80;99.90;;;;;;5042687;28;20459;-71
2022/02/06 00:09:01;;;;;;;4.43;1.65;;;5.80;99.90;;;;;;5043594;28;20030;-70
2022/02/06 00:11:27;;;;;;;11.40;1.85;;;5.80;99.90;;;;;;5042010;28;20033;-71
2022/02/06 00:13:53;;;;;;;6.45;1.52;;;5.70;99.90;;;;;;5042698;28;20061;-68
2022/02/06 00:16:19;;;;;;;5.65;1.40;;;5.80;99.90;;;;;;5041911;28;20456;-69
2022/02/06 00:18:45;;;;;;;4.15;1.60;;;5.80;99.90;;;;;;5042341;28;20083;-71
2022/02/06 00:21:15;;;;;;;6.13;1.77;;;5.80;99.90;;;;;;5040635;28;20025;-70
2022/02/06 00:23:42;;;;;;;3.65;1.85;;;5.80;99.90;;;;;;5042988;28;20130;-68
2022/02/06 00:26:25;;;;;;;3.95;1.90;;;5.80;99.90;;;;;;5042091;28;20030;-69
2022/02/06 00:32:00;;;;;;;7.28;2.30;;;5.90;99.90;;;;;;5043295;28;20036;-68
2022/02/06 00:39:42;;;;;;;6.93;1.40;;;5.80;99.90;;;;;;5039835;28;20071;-69
2022/02/06 00:42:08;;;;;;;6.53;2.00;;;5.70;99.90;;;;;;5035011;28;20033;-68
2022/02/06 00:44:34;;;;;;;5.78;1.42;;;5.80;99.90;;;;;;5035626;28;20032;-67
2022/02/06 00:47:02;;;;;;;4.95;1.38;;;5.80;99.90;;;;;;5035623;28;20048;-69
2022/02/06 00:49:30;;;;;;;10.32;1.33;;;5.90;99.90;;;;;;5035490;28;20120;-67
2022/02/06 00:54:34;;;;;;;8.32;1.45;;;5.80;99.90;;;;;;5038555;28;20391;-68
2022/02/06 00:56:59;;;;;;;6.68;1.33;;;5.80;99.90;;;;;;5037298;28;20029;-69
2022/02/06 00:59:25;;;;;;;6.93;1.90;;;5.80;99.90;;;;;;5038592;28;20391;-67
2022/02/06 01:01:51;;;;;;;2.60;1.25;;;5.90;99.90;;;;;;5039174;28;20426;-72
2022/02/06 01:04:17;;;;;;;15.95;1.88;;;5.90;99.90;;;;;;5037837;28;20033;-69
2022/02/06 01:06:43;;;;;;;5.50;2.33;;;5.90;99.90;;;;;;5037979;28;20029;-70
2022/02/06 01:09:09;;;;;;;10.07;2.10;;;5.90;99.90;;;;;;5038681;28;20030;-71
2022/02/06 01:11:36;;;;;;;7.97;1.63;;;5.90;99.90;;;;;;5039009;28;20391;-68
2022/02/06 01:16:37;;;;;;;7.53;1.33;;;5.90;99.90;;;;;;5039435;28;20360;-69
2022/02/06 01:19:08;;;;;;;10.35;1.38;;;6.00;99.90;;;;;;5036778;28;20115;-67
2022/02/06 01:24:11;;;;;;;8.70;1.83;;;5.80;99.90;;;;;;5038570;28;20475;-68
2022/02/06 01:26:43;;;;;;;6.38;2.42;;;5.80;99.90;;;;;;5036798;28;20045;-68
2022/02/06 01:29:34;;;;;;;;;;;5.90;99.90;;;;;;5037510;28;20033;-67
2022/02/06 01:37:42;;;;;;;5.20;1.52;;;5.80;99.90;;;;;;5037362;28;20042;-69
2022/02/06 01:40:15;;;;;;;5.93;1.90;;;5.90;99.90;;;;;;5038260;28;20034;-68
2022/02/06 01:42:46;;;;;;;9.43;2.58;;;5.80;99.90;;;;;;5037316;28;20068;-68
2022/02/06 02:04:09;;;;;;;10.35;1.65;;;5.80;99.90;;;;;;5037230;28;20029;-68
2022/02/06 02:17:41;;;;;;;5.30;1.85;;;5.70;99.90;;;;;;5037786;28;20112;-67
2022/02/06 02:26:12;;;;;;;8.05;1.95;;;5.80;99.90;;;;;;5036650;28;20026;-67
2022/02/06 02:47:16;;;;;;;5.40;1.70;;;5.80;99.90;;;;;;5037305;28;20040;-68
2022/02/06 02:49:59;;;;;;;7.38;1.50;;;5.90;99.90;;;;;;5036302;28;20056;-69
2022/02/06 02:52:50;;;;;;;4.60;2.20;;;5.80;99.90;;;;;;5036646;28;20413;-67
2022/02/06 02:55:28;;;;;;;8.35;3.05;;;5.90;99.90;;;;;;5035574;28;20362;-71
2022/02/06 03:00:52;;;;;;;8.70;2.35;;;5.80;99.90;;;;;;5036691;28;20360;-68
2022/02/06 03:03:23;;;;;;;9.75;2.08;;;5.90;99.90;;;;;;5032766;28;20558;-69
2022/02/06 03:05:51;;;;;;;8.88;1.75;;;5.90;99.90;;;;;;5032713;28;20116;-68
2022/02/06 03:08:17;;;;;;;5.95;2.13;;;5.90;99.90;;;;;;5032712;28;20082;-68
2022/02/06 03:10:44;;;;;;;10.70;3.03;;;5.90;99.90;;;;;;5032718;28;20034;-69
2022/02/06 03:13:13;;;;;;;7.25;2.35;;;6.00;99.90;;;;;;5032071;28;20029;-69
2022/02/06 03:16:01;;;;;;;12.90;2.03;;;6.00;99.90;;;;;;5032836;28;20100;-68
2022/02/06 03:18:30;;;;;;;13.77;2.10;;;6.00;99.90;;;;;;5034037;28;20032;-69
2022/02/06 03:20:56;;;;;;;5.65;2.45;;;6.10;99.90;;;;;;5033548;28;20057;-68
2022/02/06 03:23:23;;;;;;;10.30;3.25;;;6.10;99.90;;;;;;5033608;28;20107;-68
2022/02/06 03:25:58;;;;;;;4.82;2.22;;;6.20;99.90;;;;;;5033528;28;20021;-67
2022/02/06 03:28:25;;;;;;;5.63;1.98;;;6.10;99.90;;;;;;5034587;28;20035;-70
2022/02/06 03:30:52;;;;;;;6.75;1.77;;;6.10;99.90;;;;;;5034626;28;20116;-68
2022/02/06 03:33:18;;;;;;;10.57;2.10;;;6.00;99.90;;;;;;5033199;28;20025;-69
2022/02/06 03:35:47;;;;;;;7.90;2.03;;;6.10;99.90;;;;;;5033921;28;20026;-67
2022/02/06 03:38:13;;;;;;;7.63;1.85;;;6.00;99.90;;;;;;5034333;28;20037;-68
2022/02/06 03:40:53;;;;;;;5.90;1.95;;;6.10;99.90;;;;;;5034649;28;20100;-68
2022/02/06 03:43:31;;;;;;;7.68;1.40;;;6.00;99.90;;;;;;5035976;28;20018;-67
2022/02/06 03:46:05;;;;;;;6.93;2.35;;;6.10;99.90;;;;;;5035659;28;20071;-70
2022/02/06 03:48:45;;;;;;;3.95;1.70;;;6.10;99.90;;;;;;5035484;28;20042;-69
2022/02/06 03:51:28;;;;;;;7.70;1.98;;;6.10;99.90;;;;;;5035392;28;20045;-67
2022/02/06 03:53:54;;;;;;;3.92;1.52;;;6.10;99.90;;;;;;5034065;28;20609;-67
2022/02/06 03:56:23;;;;;;;4.32;1.67;;;6.10;99.90;;;;;;5033336;28;20072;-67
2022/02/06 03:58:49;;;;;;;7.72;2.00;;;6.10;99.90;;;;;;5032806;28;20479;-68
2022/02/06 04:01:15;;;;;;;6.18;1.73;;;6.10;99.90;;;;;;5032472;28;20022;-69
2022/02/06 04:03:40;;;;;;;10.13;1.65;;;6.10;99.90;;;;;;5035237;28;20061;-70
2022/02/06 04:06:06;;;;;;;5.32;2.83;;;6.10;99.90;;;;;;5034867;28;20052;-69
2022/02/06 04:08:35;;;;;;;5.82;1.88;;;6.20;99.90;;;;;;5032510;28;20040;-67
2022/02/06 04:11:04;;;;;;;3.42;2.17;;;6.20;99.90;;;;;;5032775;28;20425;-67
2022/02/06 04:13:33;;;;;;;4.10;1.50;;;6.10;99.90;;;;;;5032900;28;20033;-68
2022/02/06 04:16:01;;;;;;;5.82;2.05;;;6.20;99.90;;;;;;5032083;28;20025;-68
2022/02/06 04:18:41;;;;;;;5.13;2.47;;;6.20;99.90;;;;;;5036879;28;20032;-68
2022/02/06 04:21:06;;;;;;;6.28;1.60;;;6.10;99.90;;;;;;5036330;28;20121;-68
2022/02/06 04:23:32;;;;;;;9.63;2.30;;;6.20;99.90;;;;;;5036221;28;20049;-68
2022/02/06 04:25:59;;;;;;;4.00;1.92;;;6.20;99.90;;;;;;5036135;28;20078;-71
2022/02/06 04:28:24;;;;;;;7.85;1.98;;;6.20;99.90;;;;;;5035035;28;20029;-68
2022/02/06 04:30:50;;;;;;;5.18;1.90;;;6.20;99.90;;;;;;5035223;28;20041;-68
2022/02/06 04:33:16;;;;;;;5.38;1.50;;;6.10;99.90;;;;;;5034456;28;20029;-67
2022/02/06 04:35:42;;;;;;;10.10;2.92;;;6.20;99.90;;;;;;5036416;28;20101;-68
2022/02/06 04:41:33;;;;;;;6.18;2.03;;;6.20;99.90;;;;;;5033163;28;20037;-69
2022/02/06 04:44:38;;;;;;;8.23;1.83;;;6.20;99.90;;;;;;5033697;28;20138;-68
2022/02/06 05:22:31;;;;;;;4.10;1.50;;;6.20;99.90;;;;;;5035262;28;20064;-67
2022/02/06 05:30:03;;;;;;;8.55;1.95;;;6.30;99.90;;;;;;5036575;28;20045;-68
2022/02/06 05:32:37;;;;;;;5.70;1.50;;;6.30;99.90;;;;;;5035457;28;20486;-69
2022/02/06 05:35:04;;;;;;;8.00;1.50;;;6.40;99.90;;;;;;5034381;28;20534;-70
2022/02/06 05:37:29;;;;;;;9.90;1.70;;;6.40;99.90;;;;;;5037460;28;20037;-68
2022/02/06 05:39:56;;;;;;;5.88;1.27;;;6.40;99.90;;;;;;5034603;28;20076;-68
2022/02/06 05:42:22;;;;;;;8.45;1.63;;;6.40;99.90;;;;;;5033188;28;20040;-68
2022/02/06 05:44:55;;;;;;;5.35;1.40;;;6.40;99.90;;;;;;5034819;28;20021;-68
2022/02/06 05:47:23;;;;;;;6.30;1.92;;;6.40;99.90;;;;;;5032947;28;20037;-69
2022/02/06 05:49:49;;;;;;;5.20;1.80;;;6.40;99.90;;;;;;5035605;28;20034;-68
2022/02/06 05:52:16;;;;;;;5.82;1.60;;;6.40;99.90;;;;;;5034947;28;20468;-68
2022/02/06 05:54:41;;;;;;;3.50;1.42;;;6.40;99.90;;;;;;5035413;28;20088;-67
2022/02/06 05:57:07;;;;;;;4.70;1.85;;;6.40;99.90;;;;;;5035032;28;20029;-67
2022/02/06 05:59:33;;;;;;;5.90;2.38;;;6.40;99.90;;;;;;5035203;28;20029;-67
2022/02/06 06:01:58;;;;;;;6.78;1.95;;;6.40;99.90;;;;;;5036738;28;20104;-69
2022/02/06 06:04:24;;;;;;;6.63;1.65;;;6.50;99.90;;;;;;5033900;28;20306;-68
2022/02/06 06:06:50;;;;;;;12.88;1.73;;;6.40;99.90;;;;;;5034282;28;20065;-67
2022/02/06 06:09:15;;;;;;;5.35;2.15;;;6.40;99.90;;;;;;5033874;28;20026;-68
2022/02/06 06:11:41;;;;;;;8.02;1.52;;;6.50;99.90;;;;;;5032901;28;20025;-67
2022/02/06 06:14:07;;;;;;;5.70;1.42;;;6.50;99.90;;;;;;5033651;28;20075;-69
2022/02/06 06:16:34;;;;;;;4.25;1.27;;;6.50;99.90;;;;;;5034828;28;20053;-68
2022/02/06 06:19:01;;;;;;;7.85;1.67;;;6.50;99.90;;;;;;5033643;28;20026;-68
2022/02/06 06:21:30;;;;;;;4.63;1.40;;;6.40;99.90;;;;;;5036558;28;20056;-68
2022/02/06 06:23:56;;;;;;;2.97;1.23;;;6.40;99.90;;;;;;5036371;28;20052;-68
2022/02/06 06:26:25;;;;;;;8.95;1.85;;;6.40;99.90;;;;;;5036714;28;20029;-69
2022/02/06 06:28:50;;;;;;;4.40;1.67;;;6.40;99.90;;;;;;5034187;28;20475;-68
2022/02/06 06:31:16;;;;;;;3.88;1.92;;;6.40;99.90;;;;;;5031640;28;20033;-68
2022/02/06 06:33:42;;;;;;;5.20;1.45;;;6.40;99.90;;;;;;5033082;28;20463;-67
2022/02/06 06:36:07;;;;;;;11.15;1.40;;;6.40;99.90;;;;;;5033820;28;20075;-68
2022/02/06 06:38:34;;;;;;;4.97;1.23;;;6.40;99.90;;;;;;5034206;28;20468;-67
2022/02/06 06:41:00;;;;;;;11.35;1.48;;;6.40;99.90;;;;;;5034842;28;20034;-67
2022/02/06 06:43:26;;;;;;;3.50;1.65;;;6.40;99.90;;;;;;5033050;28;20791;-68
2022/02/06 06:45:52;;;;;;;5.10;1.17;;;6.40;99.90;;;;;;5033881;28;20379;-67
2022/02/06 06:48:17;;;;;;;6.10;2.20;;;6.30;99.90;;;;;;5033031;28;20037;-68
2022/02/06 06:50:43;;;;;;;6.40;1.75;;;6.30;99.90;;;;;;5034023;28;20365;-70
2022/02/06 06:53:11;;;;;;;4.07;1.15;;;6.40;99.90;;;;;;5033299;28;20033;-69
2022/02/06 06:55:38;;;;;;;9.32;1.75;;;6.30;99.90;;;;;;5031866;28;20378;-68
2022/02/06 06:58:23;;;;;;;9.98;1.73;;;6.30;99.90;;;;;;5033424;28;20021;-67
2022/02/06 07:03:25;;;;;;;4.45;1.30;;;6.40;99.90;;;;;;5033006;28;20492;-67
2022/02/06 07:05:50;;;;;;;4.50;1.23;;;6.30;99.90;;;;;;5033558;28;20395;-67
2022/02/06 07:08:17;;;;;;;7.30;2.45;;;6.40;99.90;;;;;;5032100;28;20460;-69
2022/02/06 07:10:47;;;;;;;6.22;1.58;;;6.40;99.90;;;;;;5034400;28;20029;-69
2022/02/06 07:13:13;;;;;;;9.80;1.40;;;6.40;99.90;;;;;;5034699;28;20025;-67
2022/02/06 07:15:39;;;;;;;5.93;1.55;;;6.40;99.90;;;;;;5035723;28;20022;-68
2022/02/06 07:18:05;;;;;;;7.30;1.48;;;6.40;99.90;;;;;;5035888;28;20029;-68
2022/02/06 07:20:33;;;;;;;5.50;1.42;;;6.40;99.90;;;;;;5032811;28;20523;-67
2022/02/06 07:22:59;;;;;;;4.15;1.10;;;6.50;99.90;;;;;;5033102;28;20144;-69
2022/02/06 07:25:26;;;;;;;2.97;1.10;;;6.50;99.90;;;;;;5031734;28;20029;-67
2022/02/06 07:27:53;;;;;;;12.60;3.17;;;6.50;99.90;;;;;;5033594;28;20064;-68
2022/02/06 07:30:18;;;;;;;3.22;1.48;;;6.40;99.90;;;;;;5032780;28;20034;-67
2022/02/06 07:32:44;;;;;;;9.18;1.27;;;6.50;99.90;;;;;;5033064;28;20025;-69
2022/02/06 07:35:12;;;;;;;5.22;1.08;;;6.40;99.90;;;;;;5030553;28;20121;-73
2022/02/06 07:37:55;;;;;;;7.03;1.00;;;6.50;99.90;;;;;;5033596;28;20084;-68
2022/02/06 07:40:21;;;;;;;5.68;1.40;;;6.50;99.90;;;;;;5031190;28;20072;-68
2022/02/06 07:42:51;;;;;;;9.68;0.90;;;6.50;99.90;;;;;;5032050;28;20479;-68
2022/02/06 07:45:17;;;;;;;7.32;1.60;;;6.50;99.90;;;;;;5031767;28;20041;-67
2022/02/06 07:47:45;;;;;;;5.43;0.95;;;6.50;99.90;;;;;;5034350;28;20128;-69
2022/02/06 07:50:13;;;;;;;6.05;1.92;;;6.40;99.90;;;;;;5034854;28;20053;-73
2022/02/06 07:52:41;;;;;;;5.55;1.25;;;6.50;99.90;;;;;;5038756;28;20040;-69
2022/02/06 07:55:08;;;;;;;6.47;1.10;;;6.50;99.90;;;;;;5036499;28;20494;-67
2022/02/06 07:57:34;;;;;;;4.50;1.35;;;6.50;99.90;;;;;;5035083;28;20033;-67
2022/02/06 08:00:02;;;;;;;12.40;1.52;;;6.60;99.90;;;;;;5036871;28;20037;-67
2022/02/06 08:02:27;;;;;;;7.90;1.20;;;6.60;99.90;;;;;;5036303;28;20017;-67
2022/02/06 08:04:53;;;;;;;5.90;1.50;;;6.60;99.90;;;;;;5036728;28;20092;-68
2022/02/06 08:07:19;;;;;;;7.22;1.50;;;6.60;99.90;;;;;;5036140;28;20068;-68
2022/02/06 08:09:53;;;;;;;5.57;1.48;;;6.60;99.90;;;;;;5036790;28;20124;-69
2022/02/06 08:12:31;;;;;;;4.70;1.15;;;6.70;99.90;;;;;;5035150;28;20116;-69
2022/02/06 08:15:00;;;;;;;9.43;1.55;;;6.60;99.90;;;;;;5036605;28;20033;-71
2022/02/06 08:17:28;;;;;;;7.20;1.48;;;6.70;99.90;;;;;;5036293;28;20033;-67
2022/02/06 08:19:55;;;;;;;3.33;1.10;;;6.70;99.90;;;;;;5034978;28;20037;-69
2022/02/06 08:22:22;;;;;;;17.35;1.65;;;6.60;99.90;;;;;;5034443;28;20051;-68
2022/02/06 08:24:50;;;;;;;5.60;1.15;;;6.60;99.90;;;;;;5036021;28;20533;-68
2022/02/06 08:27:20;;;;;;;7.03;1.58;;;6.60;99.90;;;;;;5037164;28;20029;-70
2022/02/06 08:29:47;;;;;;;7.30;1.40;;;6.60;99.90;;;;;;5035597;28;20040;-67
2022/02/06 08:32:15;;;;;;;8.07;1.25;;;6.50;99.90;;;;;;5036973;28;20406;-68
2022/02/06 08:34:42;;;;;;;4.20;2.03;;;6.50;99.90;;;;;;5035911;28;20509;-69
2022/02/06 08:37:09;;;;;;;9.23;1.73;;;6.50;99.90;;;;;;5037651;28;20033;-69
2022/02/06 08:39:36;;;;;;;6.75;1.40;;;6.50;99.90;;;;;;5036634;28;20458;-69
2022/02/06 08:42:06;;;;;;;5.18;1.55;;;6.50;99.90;;;;;;5035698;28;20021;-68
2022/02/06 08:44:33;;;;;;;8.02;1.10;;;6.50;99.90;;;;;;5035781;28;20021;-68
2022/02/06 08:46:58;;;;;;;8.68;1.35;;;6.50;99.90;;;;;;5038339;28;20026;-69
2022/02/06 08:49:24;;;;;;;6.28;1.05;;;6.50;99.90;;;;;;5036348;28;20364;-68
2022/02/06 08:51:51;;;;;;;6.40;1.10;;;6.50;99.90;;;;;;5033228;28;20037;-67
2022/02/06 08:54:17;;;;;;;1.83;0.60;;;6.50;99.90;;;;;;5037306;28;20033;-68
2022/02/06 08:56:43;;;;;;;4.53;1.00;;;6.40;99.90;;;;;;5034301;28;20059;-69
2022/02/06 08:59:10;;;;;;;6.32;1.45;;;6.40;99.90;;;;;;5037384;28;20104;-57
2022/02/06 09:01:37;;;;;;;4.78;0.70;;;7.50;99.90;;;;;;5035221;28;20034;-68
2022/02/06 09:04:04;;;;;;;8.30;1.67;;;7.90;99.90;;;;;;5036901;28;20025;-58
2022/02/06 09:06:30;;;;;;;4.22;0.80;;;8.90;99.90;;;;;;5035691;28;20033;-62
2022/02/06 09:08:58;;;;;;;4.05;1.27;;;9.30;99.90;;;;;;5036753;28;20037;-60
2022/02/06 09:11:25;;;;;;;1.90;0.77;;;9.10;99.90;;;;;;5031835;28;20030;-69
2022/02/06 09:13:52;;;;;;;5.72;1.08;;;7.90;99.90;;;;;;5016782;28;20072;-71
2022/02/06 09:16:18;;;;;;;3.53;1.17;;;7.30;99.90;;;;;;5033007;28;20029;-62
2022/02/06 09:18:44;;;;;;;3.72;0.82;;;6.90;99.90;;;;;;5036094;28;20026;-56
2022/02/06 09:21:10;;;;;;;3.25;0.95;;;7.60;99.90;;;;;;5034324;28;20036;-68
2022/02/06 09:23:36;;;;;;;7.05;0.90;;;8.20;99.90;;;;;;5030235;28;20213;-68
2022/02/06 09:26:02;;;;;;;2.60;0.70;;;7.40;99.90;;;;;;5034374;28;20523;-67
2022/02/06 09:28:29;;;;;;;2.97;0.82;;;7.00;99.90;;;;;;5039750;28;20033;-68
2022/02/06 09:30:54;;;;;;;6.30;1.10;;;6.70;99.90;;;;;;5045192;28;20069;-67
2022/02/06 09:35:46;;;;;;;5.07;0.85;;;7.80;99.90;;;;;;5035094;28;20455;-64
2022/02/06 09:38:11;;;;;;;9.13;0.73;;;8.40;99.90;;;;;;5031412;28;20056;-65
2022/02/06 09:40:40;;;;;;;2.47;0.60;;;8.10;99.90;;;;;;5028143;28;20079;-69
2022/02/06 09:43:06;;;;;;;2.45;0.60;;;7.30;99.90;;;;;;5025827;28;20041;-69
2022/02/06 09:45:37;;;;;;;5.65;2.63;;;7.10;99.90;;;;;;5026502;28;20051;-70
2022/02/06 09:48:04;;;;;;;2.90;0.70;;;6.90;99.90;;;;;;5028560;28;20041;-69
2022/02/06 09:50:30;;;;;;;6.38;1.10;;;6.70;99.90;;;;;;5030263;28;20057;-67
2022/02/06 09:52:56;;;;;;;3.85;0.85;;;6.70;99.90;;;;;;5029727;28;20450;-71
2022/02/06 09:55:22;;;;;;;2.15;0.60;;;6.70;99.90;;;;;;5030066;28;20025;-68
2022/02/06 09:57:55;;;;;;;4.22;1.02;;;6.60;99.90;;;;;;5027766;28;20491;-69
2022/02/06 10:00:25;;;;;;;4.00;1.10;;;6.60;99.90;;;;;;5025871;28;20040;-70
2022/02/06 10:02:52;;;;;;;4.75;0.85;;;6.60;99.90;;;;;;5028497;28;20041;-68
2022/02/06 10:05:19;;;;;;;6.72;1.20;;;6.50;99.90;;;;;;5031034;28;20464;-68
2022/02/06 10:07:53;;;;;;;5.30;1.40;;;6.50;99.90;;;;;;5031545;28;20204;-69
2022/02/06 10:10:20;;;;;;;7.40;1.38;;;6.60;99.90;;;;;;5029009;28;20029;-73
2022/02/06 10:12:47;;;;;;;3.88;1.10;;;6.60;99.90;;;;;;5027380;28;20387;-68
2022/02/06 10:15:21;;;;;;;2.83;2.15;;;6.60;99.90;;;;;;5028833;28;20055;-70
2022/02/06 10:17:49;;;;;;;6.10;1.58;;;6.60;99.90;;;;;;5031104;28;20037;-70
2022/02/06 10:20:16;;;;;;;5.15;0.93;;;6.60;99.90;;;;;;5031085;28;20060;-69
2022/02/06 10:22:52;;;;;;;9.20;1.00;;;6.70;99.90;;;;;;5028144;28;20045;-68
2022/02/06 10:25:18;;;;;;;2.83;0.70;;;6.70;99.90;;;;;;5044273;28;20430;-69
2022/02/06 10:30:38;;;;;;;2.30;0.93;;;6.70;99.90;;;;;;5030200;28;20034;-68
2022/02/06 10:33:10;;;;;;;1.98;0.60;;;6.60;99.90;;;;;;5029064;28;20025;-69
2022/02/06 10:35:40;;;;;;;1.88;1.10;;;6.60;99.90;;;;;;5040468;28;20074;-68
2022/02/06 10:38:16;;;;;;;3.55;0.68;;;6.60;99.90;;;;;;5062435;28;20045;-70
2022/02/06 10:40:45;;;;;;;6.68;1.95;;;6.60;99.90;;;;;;5030544;28;20506;-70
2022/02/06 10:43:12;;;;;;;3.90;1.35;;;6.60;99.90;;;;;;5028490;28;20522;-70
2022/02/06 10:45:38;;;;;;;1.77;0.73;;;6.60;99.90;;;;;;5027594;28;20041;-70
2022/02/06 10:48:19;;;;;;;2.30;0.77;;;6.60;99.90;;;;;;5031292;28;20033;-70
2022/02/06 10:50:45;;;;;;;3.15;0.60;;;6.60;99.90;;;;;;5029084;28;20045;-69
2022/02/06 10:53:16;;;;;;;3.70;1.15;;;6.60;99.90;;;;;;5028707;28;20037;-67
2022/02/06 10:55:51;;;;;;;5.25;0.88;;;6.60;99.90;;;;;;5029036;28;20120;-69
2022/02/06 10:58:17;;;;;;;3.97;0.98;;;6.70;99.90;;;;;;5029350;28;20038;-69
2022/02/06 11:00:43;;;;;;;3.72;0.68;;;6.70;99.90;;;;;;5028049;28;20083;-69
2022/02/06 11:03:29;;;;;;;2.85;1.02;;;6.70;99.90;;;;;;5028816;28;20041;-68
2022/02/06 11:06:05;;;;;;;4.10;1.10;;;6.60;99.90;;;;;;5029567;28;20132;-71
2022/02/06 11:08:34;;;;;;;1.83;0.95;;;6.70;99.90;;;;;;5029603;28;20033;-72
2022/02/06 11:11:07;;;;;;;8.13;1.67;;;6.70;99.90;;;;;;5030817;28;20030;-70
2022/02/06 11:13:33;;;;;;;5.55;1.08;;;6.70;99.90;;;;;;5027405;28;20033;-67
2022/02/06 11:16:15;;;;;;;2.47;0.90;;;6.80;99.90;;;;;;5028375;28;20072;-69
2022/02/06 11:18:54;;;;;;;4.50;1.00;;;6.80;99.90;;;;;;5028811;28;20034;-70
2022/02/06 11:21:20;;;;;;;1.80;0.70;;;6.80;99.90;;;;;;5030286;28;20029;-69
2022/02/06 11:23:52;;;;;;;6.57;0.65;;;6.80;99.90;;;;;;5029104;28;20384;-69
2022/02/06 11:26:23;;;;;;;3.05;0.68;;;6.80;99.90;;;;;;5027680;28;20037;-70
2022/02/06 11:28:52;;;;;;;4.20;0.57;;;6.70;99.90;;;;;;5028821;28;20040;-70
2022/02/06 11:31:18;;;;;;;3.15;0.70;;;6.80;99.90;;;;;;5028060;28;20634;-72
2022/02/06 11:33:46;;;;;;;2.63;0.65;;;6.80;99.90;;;;;;5028481;28;20029;-70
2022/02/06 11:36:19;;;;;;;3.13;0.90;;;6.80;99.90;;;;;;5027806;28;20034;-71
2022/02/06 11:45:18;;;;;;;1.80;0.98;;;6.70;99.90;;;;;;5028432;28;20028;-69
2022/02/06 11:47:47;;;;;;;2.22;1.02;;;6.70;99.90;;;;;;5027218;28;20032;-69
2022/02/06 11:50:16;;;;;;;1.17;0.45;;;6.70;99.90;;;;;;5028785;28;20480;-72
2022/02/06 11:52:56;;;;;;;1.08;0.30;;;6.60;99.90;;;;;;5027192;28;20111;-72
2022/02/06 11:55:36;;;;;;;1.98;0.40;;;6.50;99.90;;;;;;5027249;28;20045;-71
2022/02/06 11:58:26;;;;;;;1.65;0.40;;;6.50;99.90;;;;;;5027532;28;20053;-69
2022/02/06 12:01:15;;;;;;;1.13;0.40;;;6.60;99.90;;;;;;5027510;28;20053;-68
2022/02/06 12:04:03;;;;;;;1.17;0.45;;;6.50;99.90;;;;;;5023978;28;20045;-68
2022/02/06 12:06:50;;;;;;;1.40;0.43;;;6.50;99.90;;;;;;5025958;28;20688;-71
2022/02/06 12:09:23;;;;;;;1.20;0.50;;;6.40;99.90;;;;;;5025215;28;20116;-71
2022/02/06 12:12:04;;;;;;;1.15;0.30;;;6.40;99.90;;;;;;5027422;28;20116;-70
2022/02/06 12:14:34;;;;;;;2.00;0.55;;;6.40;99.90;;;;;;5029246;28;20038;-69
2022/02/06 12:20:17;;;;;;;2.45;1.15;;;6.30;99.90;;;;;;5029338;28;20040;-70
2022/02/06 12:22:45;;;;;;;1.35;1.05;;;6.30;99.90;;;;;;5029065;28;20088;-70
2022/02/06 12:25:17;;;;;;;1.00;0.30;;;6.40;99.90;;;;;;5030255;28;20117;-71
2022/02/06 12:27:43;;;;;;;1.10;0.40;;;6.30;99.90;;;;;;5027714;28;20041;-71
2022/02/06 12:30:18;;;;;;;0.60;0.20;;;6.30;99.90;;;;;;5029507;28;20045;-70
2022/02/06 12:32:44;;;;;;;0.63;0.40;;;6.30;99.90;;;;;;5030084;28;20128;-70
2022/02/06 12:38:00;;;;;;;2.47;0.45;;;6.30;99.90;;;;;;5033994;28;20381;-71
2022/02/06 12:40:27;;;;;;;1.35;0.25;;;6.20;99.90;;;;;;5033746;28;20112;-73
2022/02/06 12:43:03;;;;;;;1.98;0.30;;;6.20;99.90;;;;;;5030536;28;20037;-70
2022/02/06 12:45:31;;;;;;;0.50;0.22;;;6.20;99.90;;;;;;5031719;28;20087;-71
2022/02/06 12:48:03;;;;;;;1.70;0.20;;;6.20;99.90;;;;;;5030480;28;20124;-69
2022/02/06 12:50:35;;;;;;;1.70;0.30;;;6.20;99.90;;;;;;5030077;28;20036;-69
2022/02/06 12:53:02;;;;;;;2.40;0.17;;;6.30;99.90;;;;;;5031849;28;20053;-70
2022/02/06 12:55:34;;;;;;;1.55;0.40;;;6.20;99.90;;;;;;5031839;28;20033;-71
2022/02/06 12:58:00;;;;;;;4.18;0.30;;;6.20;99.90;;;;;;5033206;28;20445;-71
2022/02/06 13:00:46;;;;;;;3.22;0.25;;;6.20;99.90;;;;;;5033715;28;20045;-71
2022/02/06 13:03:16;;;;;;;1.55;0.40;;;6.20;99.90;;;;;;5031259;28;20033;-70
2022/02/06 13:05:50;;;;;;;0.60;0.30;;;6.20;99.90;;;;;;5031326;28;20390;-71
2022/02/06 13:08:15;;;;;;;0.77;0.35;;;6.10;99.90;;;;;;5031055;28;20034;-69
2022/02/06 13:11:05;;;;;;;0.63;0.30;;;6.00;99.90;;;;;;5030375;28;20403;-70
2022/02/06 13:13:44;;;;;;;2.45;0.30;;;6.10;99.90;;;;;;5029959;28;20037;-70
2022/02/06 13:26:42;;;;;;;1.13;0.43;;;6.20;99.90;;;;;;5035500;28;20033;-58
2022/02/06 13:29:23;;;;;;;1.70;0.60;;;8.20;99.90;;;;;;5033709;28;20056;-73
2022/02/06 13:34:29;;;;;;;3.22;0.30;;;7.10;99.90;;;;;;5036917;28;20325;-71
2022/02/06 13:37:06;;;;;;;0.32;0.10;;;6.60;99.90;;;;;;5036082;28;20026;-70
2022/02/06 13:39:37;;;;;;;1.77;0.10;;;6.40;99.90;;;;;;5035548;28;20490;-71
2022/02/06 13:42:11;;;;;;;0.40;0.15;;;6.30;99.90;;;;;;5036746;28;20026;-72
2022/02/06 13:44:37;;;;;;;1.08;0.10;;;6.30;99.90;;;;;;5036030;28;20026;-72
2022/02/06 13:47:05;;;;;;;1.00;0.10;;;6.30;99.90;;;;;;5035162;28;20025;-71
2022/02/06 13:49:43;;;;;;;0.40;0.10;;;6.20;99.90;;;;;;5035705;28;20119;-73
2022/02/06 13:52:12;;;;;;;1.15;0.30;;;6.20;99.90;;;;;;5016492;28;20579;-72
2022/02/06 13:54:41;;;;;;;0.47;0.32;;;6.10;99.90;;;;;;5023951;28;20041;-70
2022/02/06 13:57:08;;;;;;;1.25;0.28;;;6.20;99.90;;;;;;5037712;28;20487;-71
2022/02/06 13:59:38;;;;;;;0.50;0.10;;;6.20;99.90;;;;;;5026955;28;20021;-72
2022/02/06 14:02:07;;;;;;;1.92;0.30;;;6.20;99.90;;;;;;5034556;28;20037;-71
2022/02/06 14:04:36;;;;;;;1.08;0.13;;;6.20;99.90;;;;;;5036885;28;20475;-72
2022/02/06 14:07:15;;;;;;;0.50;0.20;;;6.20;99.90;;;;;;5033033;28;20489;-71
2022/02/06 14:12:22;;;;;;;0.70;0.30;;;6.30;99.90;;;;;;5047976;28;20079;-71
2022/02/06 14:14:52;;;;;;;1.08;0.22;;;6.20;99.90;;;;;;5049941;28;20025;-72
2022/02/06 14:17:38;;;;;;;0.30;0.10;;;6.10;99.90;;;;;;5052082;28;20104;-70
2022/02/06 14:20:11;;;;;;;0.50;0.20;;;6.10;99.90;;;;;;5048403;28;20479;-69
2022/02/06 14:22:43;;;;;;;0.30;0.17;;;6.20;99.90;;;;;;5029916;28;20038;-71
2022/02/06 14:25:15;;;;;;;2.95;0.20;;;6.20;99.90;;;;;;5038733;28;20021;-72
2022/02/06 14:27:42;;;;;;;1.25;0.17;;;6.20;99.90;;;;;;5034625;28;20049;-71
2022/02/06 14:30:25;;;;;;;1.95;0.05;;;6.10;99.90;;;;;;5035146;28;20026;-71
2022/02/06 14:33:10;;;;;;;0.85;0.20;;;6.20;99.90;;;;;;5029460;28;20034;-71
2022/02/06 14:35:52;;;;;;;0.10;0.10;;;6.10;99.90;;;;;;5029280;28;20497;-71
2022/02/06 14:38:29;;;;;;;0.15;0.10;;;6.10;99.90;;;;;;5033277;28;20539;-72
2022/02/06 14:41:22;;;;;;;2.08;0.22;;;6.20;99.90;;;;;;5027411;28;20030;-72
2022/02/06 14:44:06;;;;;;;1.08;0.00;;;6.10;99.90;;;;;;5064138;28;20422;-72
2022/02/06 14:46:33;;;;;;;0.52;0.13;;;6.10;99.90;;;;;;5037033;28;20471;-72
2022/02/06 14:49:02;;;;;;;1.25;0.20;;;6.10;99.90;;;;;;5034143;28;20037;-69
2022/02/06 14:51:31;;;;;;;0.20;0.10;;;6.00;99.90;;;;;;5033210;28;20105;-70
2022/02/06 14:54:01;;;;;;;0.70;0.10;;;6.10;99.90;;;;;;5025299;28;20498;-71
2022/02/06 14:56:29;;;;;;;0.85;0.10;;;6.10;99.90;;;;;;5034677;28;20025;-71
2022/02/06 14:58:55;;;;;;;2.58;0.20;;;6.10;99.90;;;;;;5033293;28;20203;-71
2022/02/06 15:01:21;;;;;;;1.95;0.20;;;6.10;99.90;;;;;;5045944;28;20478;-73
2022/02/06 15:03:47;;;;;;;0.10;0.00;;;6.10;99.90;;;;;;5032521;28;20120;-71
2022/02/06 15:06:13;;;;;;;2.17;0.10;;;6.10;99.90;;;;;;5034459;28;20032;-71
2022/02/06 15:08:38;;;;;;;0.47;0.30;;;6.20;99.90;;;;;;5034052;28;20106;-72
2022/02/06 15:11:04;;;;;;;0.80;0.30;;;6.20;99.90;;;;;;5050908;28;20025;-71
2022/02/06 15:13:33;;;;;;;1.25;0.30;;;6.20;99.90;;;;;;5040640;28;20238;-71
2022/02/06 15:16:05;;;;;;;2.72;0.35;;;6.20;99.90;;;;;;5033187;28;20033;-71
2022/02/06 15:18:36;;;;;;;0.50;0.13;;;6.20;99.90;;;;;;5034810;28;20092;-71
2022/02/06 15:21:03;;;;;;;0.30;0.20;;;6.20;99.90;;;;;;5050042;28;20028;-71
2022/02/06 15:23:29;;;;;;;1.65;0.40;;;6.20;99.90;;;;;;5056530;28;20476;-71
2022/02/06 15:25:55;;;;;;;1.55;0.30;;;6.20;99.90;;;;;;5054479;28;20289;-69
2022/02/06 15:28:23;;;;;;;1.67;0.25;;;6.30;99.90;;;;;;5040732;28;20470;-71
2022/02/06 15:30:48;;;;;;;2.65;0.10;;;6.30;99.90;;;;;;5062675;28;20088;-71
2022/02/06 15:33:14;;;;;;;0.70;0.30;;;6.20;99.90;;;;;;5047398;28;20423;-69
2022/02/06 15:35:41;;;;;;;1.05;0.20;;;6.30;99.90;;;;;;5035240;28;20029;-71
2022/02/06 15:38:08;;;;;;;1.83;0.10;;;6.20;99.90;;;;;;5035004;28;20026;-70
2022/02/06 15:40:38;;;;;;;0.57;0.20;;;6.30;99.90;;;;;;5045434;28;20084;-71
2022/02/06 15:43:04;;;;;;;2.97;0.30;;;6.30;99.90;;;;;;5033975;28;20109;-69
2022/02/06 15:45:30;;;;;;;0.77;0.20;;;6.20;99.90;;;;;;5041699;28;20117;-71
2022/02/06 15:47:56;;;;;;;1.17;0.30;;;6.30;99.90;;;;;;5039423;28;20362;-69
2022/02/06 15:50:21;;;;;;;0.47;0.22;;;6.30;99.90;;;;;;5048816;28;20078;-72